createdAt,value
2022-10-04T00:01:45.007Z,100.00
2022-10-04T00:04:18.438Z,100.00
2022-10-04T00:07:07.544Z,100.00
2022-10-04T00:09:42.604Z,100.00
2022-10-04T00:12:20.691Z,100.00
2022-10-04T00:14:47.857Z,100.00
2022-10-04T00:17:22.978Z,100.00
2022-10-04T00:19:51.557Z,100.00
2022-10-04T00:22:20.612Z,100.00
2022-10-04T00:25:13.533Z,100.00
2022-10-04T00:28:00.591Z,100.00
2022-10-04T00:30:37.356Z,100.00
2022-10-04T00:33:04.350Z,100.00
2022-10-04T00:35:30.659Z,100.00
2022-10-04T00:38:01.643Z,100.00
2022-10-04T00:40:35.380Z,100.00
2022-10-04T00:43:07.043Z,100.00
2022-10-04T00:45:39.166Z,100.00
2022-10-04T00:48:44.548Z,100.00
2022-10-04T00:51:25.882Z,100.00
2022-10-04T00:53:54.867Z,100.00
2022-10-04T00:56:34.254Z,100.00
2022-10-04T00:59:11.796Z,100.00
2022-10-04T01:01:39.052Z,100.00
2022-10-04T01:04:15.671Z,100.00
2022-10-04T01:06:44.049Z,100.00
2022-10-04T01:09:12.094Z,100.00
2022-10-04T01:11:44.849Z,100.00
2022-10-04T01:14:20.412Z,100.00
2022-10-04T01:16:47.005Z,100.00
2022-10-04T01:19:22.589Z,100.00
2022-10-04T01:22:07.223Z,100.00
2022-10-04T01:24:38.290Z,100.00
2022-10-04T01:27:32.046Z,100.00
2022-10-04T01:30:00.440Z,100.00
2022-10-04T01:32:27.397Z,100.00
2022-10-04T01:34:53.796Z,100.00
2022-10-04T01:37:20.249Z,100.00
2022-10-04T01:39:48.172Z,100.00
2022-10-04T01:42:23.332Z,100.00
2022-10-04T01:45:26.510Z,100.00
2022-10-04T01:48:08.395Z,100.00
2022-10-04T01:50:41.174Z,100.00
2022-10-04T01:53:28.537Z,100.00
2022-10-04T01:56:04.880Z,100.00
2022-10-04T01:58:41.736Z,100.00
2022-10-04T02:01:19.372Z,100.00
2022-10-04T02:03:56.718Z,100.00
2022-10-04T02:06:24.494Z,100.00
2022-10-04T02:08:57.371Z,100.00
2022-10-04T02:11:27.999Z,100.00
2022-10-04T02:13:55.244Z,100.00
2022-10-04T02:16:22.739Z,100.00
2022-10-04T02:18:50.917Z,100.00
2022-10-04T02:21:19.091Z,100.00
2022-10-04T02:23:47.135Z,100.00
2022-10-04T02:26:13.923Z,100.00
2022-10-04T02:28:40.722Z,100.00
2022-10-04T02:31:28.282Z,100.00
2022-10-04T02:33:57.977Z,100.00
2022-10-04T02:36:27.983Z,100.00
2022-10-04T02:39:10.665Z,100.00
2022-10-04T02:41:47.257Z,100.00
2022-10-04T02:44:55.074Z,100.00
2022-10-04T02:47:29.607Z,100.00
2022-10-04T02:50:00.522Z,100.00
2022-10-04T02:52:31.590Z,100.00
2022-10-04T02:55:05.760Z,100.00
2022-10-04T02:57:34.226Z,100.00
2022-10-04T03:00:12.480Z,100.00
2022-10-04T03:02:39.841Z,100.00
2022-10-04T03:05:10.740Z,100.00
2022-10-04T03:07:39.183Z,100.00
2022-10-04T03:10:12.398Z,100.00
2022-10-04T03:12:42.993Z,100.00
2022-10-04T03:15:11.656Z,100.00
2022-10-04T03:17:40.893Z,100.00
2022-10-04T03:20:11.081Z,100.00
2022-10-04T03:22:41.635Z,100.00
2022-10-04T03:25:17.124Z,100.00
2022-10-04T03:27:44.522Z,100.00
2022-10-04T03:30:14.532Z,100.00
2022-10-04T03:32:41.894Z,100.00
2022-10-04T03:35:34.767Z,100.00
2022-10-04T03:38:06.757Z,100.00
2022-10-04T03:40:33.617Z,100.00
2022-10-04T03:43:02.426Z,100.00
2022-10-04T03:45:29.788Z,100.00
2022-10-04T03:48:04.889Z,100.00
2022-10-04T03:50:41.078Z,100.00
2022-10-04T03:53:14.998Z,100.00
2022-10-04T03:55:44.123Z,100.00
2022-10-04T03:58:17.011Z,100.00
2022-10-04T04:01:01.112Z,100.00
2022-10-04T04:03:32.120Z,100.00
2022-10-04T04:06:05.792Z,100.00
2022-10-04T04:08:40.915Z,100.00
2022-10-04T04:11:18.892Z,100.00
2022-10-04T04:13:54.665Z,100.00
2022-10-04T04:16:26.086Z,100.00
2022-10-04T04:18:54.974Z,100.00
2022-10-04T04:21:24.206Z,100.00
2022-10-04T04:23:56.396Z,100.00
2022-10-04T04:26:25.737Z,100.00
2022-10-04T04:28:57.007Z,100.00
2022-10-04T04:31:28.237Z,100.00
2022-10-04T04:34:03.552Z,100.00
2022-10-04T04:36:32.260Z,100.00
2022-10-04T04:39:40.627Z,100.00
2022-10-04T04:42:10.399Z,100.00
2022-10-04T04:44:40.121Z,100.00
2022-10-04T04:47:10.068Z,100.00
2022-10-04T04:49:40.219Z,100.00
2022-10-04T04:52:16.796Z,100.00
2022-10-04T04:54:47.005Z,100.00
2022-10-04T04:57:19.742Z,100.00
2022-10-04T04:59:50.999Z,100.00
2022-10-04T05:02:28.996Z,100.00
2022-10-04T05:05:17.456Z,100.00
2022-10-04T05:07:43.948Z,100.00
2022-10-04T05:10:33.737Z,100.00
2022-10-04T05:13:01.927Z,100.00
2022-10-04T05:15:35.925Z,100.00
2022-10-04T05:18:17.711Z,100.00
2022-10-04T05:20:53.124Z,100.00
2022-10-04T05:23:19.617Z,100.00
2022-10-04T05:25:46.282Z,100.00
2022-10-04T05:28:15.321Z,100.00
2022-10-04T05:31:03.687Z,100.00
2022-10-04T05:33:59.439Z,100.00
2022-10-04T05:36:47.236Z,100.00
2022-10-04T05:39:26.078Z,100.00
2022-10-04T05:42:12.301Z,100.00
2022-10-04T05:45:13.478Z,100.00
2022-10-04T05:47:41.712Z,100.00
2022-10-04T05:50:16.613Z,100.00
2022-10-04T05:52:43.341Z,100.00
2022-10-04T05:55:12.993Z,100.00
2022-10-04T05:58:19.045Z,100.00
2022-10-04T06:01:10.581Z,100.00
2022-10-04T06:03:56.891Z,100.00
2022-10-04T06:06:35.437Z,100.00
2022-10-04T06:09:32.832Z,100.00
2022-10-04T06:12:07.642Z,100.00
2022-10-04T06:14:52.856Z,100.00
2022-10-04T06:17:49.080Z,100.00
2022-10-04T06:20:18.447Z,100.00
2022-10-04T06:22:47.127Z,100.00
2022-10-04T06:25:21.998Z,100.00
2022-10-04T06:28:05.393Z,100.00
2022-10-04T06:31:05.786Z,100.00
2022-10-04T06:33:47.357Z,100.00
2022-10-04T06:36:22.488Z,100.00
2022-10-04T06:39:00.902Z,100.00
2022-10-04T06:42:06.439Z,100.00
2022-10-04T06:44:38.476Z,100.00
2022-10-04T06:47:33.531Z,100.00
2022-10-04T06:50:36.873Z,100.00
2022-10-04T06:53:25.202Z,100.00
2022-10-04T06:56:16.485Z,100.00
2022-10-04T06:59:11.383Z,100.00
2022-10-04T07:01:49.864Z,100.00
2022-10-04T07:05:03.100Z,100.00
2022-10-04T07:07:36.721Z,100.00
2022-10-04T07:10:30.938Z,100.00
2022-10-04T07:13:09.678Z,100.00
2022-10-04T07:15:45.227Z,100.00
2022-10-04T07:18:19.482Z,100.00
2022-10-04T07:20:49.090Z,100.00
2022-10-04T07:23:28.569Z,100.00
2022-10-04T07:26:01.798Z,100.00
2022-10-04T07:28:51.850Z,100.00
2022-10-04T07:31:25.995Z,100.00
2022-10-04T07:34:01.431Z,100.00
2022-10-04T07:36:41.821Z,100.00
2022-10-04T07:39:18.770Z,100.00
2022-10-04T07:41:51.853Z,100.00
2022-10-04T07:44:36.591Z,100.00
2022-10-04T07:47:18.475Z,100.00
2022-10-04T07:49:45.152Z,100.00
2022-10-04T07:52:20.593Z,100.00
2022-10-04T07:54:46.897Z,100.00
2022-10-04T07:57:27.525Z,100.00
2022-10-04T08:00:03.708Z,100.00
2022-10-04T08:02:49.022Z,100.00
2022-10-04T08:05:21.879Z,100.00
2022-10-04T08:08:14.149Z,100.00
2022-10-04T08:10:57.432Z,100.00
2022-10-04T08:13:47.772Z,100.00
2022-10-04T08:16:35.225Z,100.00
2022-10-04T08:19:40.907Z,100.00
2022-10-04T08:22:10.067Z,100.00
2022-10-04T08:24:53.814Z,100.00
2022-10-04T08:27:37.089Z,100.00
2022-10-04T08:30:18.095Z,100.00
2022-10-04T08:32:56.520Z,100.00
2022-10-04T08:35:34.192Z,100.00
2022-10-04T08:38:42.943Z,100.00
2022-10-04T08:41:44.683Z,100.00
2022-10-04T08:44:49.233Z,100.00
2022-10-04T08:47:37.361Z,100.00
2022-10-04T08:50:19.003Z,100.00
2022-10-04T08:52:58.729Z,100.00
2022-10-04T08:55:49.849Z,100.00
2022-10-04T08:58:29.813Z,100.00
2022-10-04T09:01:28.607Z,100.00
2022-10-04T09:04:06.945Z,100.00
2022-10-04T09:06:58.494Z,100.00
2022-10-04T09:09:48.703Z,100.00
2022-10-04T09:12:44.184Z,100.00
2022-10-04T09:15:21.116Z,100.00
2022-10-04T09:18:03.298Z,100.00
2022-10-04T09:20:47.726Z,100.00
2022-10-04T09:23:33.618Z,100.00
2022-10-04T09:26:15.329Z,100.00
2022-10-04T09:29:19.258Z,100.00
2022-10-04T09:32:16.823Z,100.00
2022-10-04T09:34:59.735Z,100.00
2022-10-04T09:37:47.752Z,100.00
2022-10-04T09:40:55.518Z,100.00
2022-10-04T09:43:54.550Z,100.00
2022-10-04T09:46:58.605Z,99.02
2022-10-04T09:49:51.141Z,99.39
2022-10-04T09:52:35.958Z,99.62
2022-10-04T09:55:30.692Z,98.81
2022-10-04T09:58:11.759Z,99.66
2022-10-04T10:00:48.901Z,99.66
2022-10-04T10:04:06.177Z,96.57
2022-10-04T10:07:00.275Z,96.69
2022-10-04T10:09:56.963Z,95.86
2022-10-04T10:13:24.859Z,90.03
2022-10-04T10:16:11.715Z,92.37
2022-10-04T10:18:59.103Z,88.28
2022-10-04T10:21:50.094Z,87.32
2022-10-04T10:24:24.082Z,87.78
2022-10-04T10:26:56.183Z,85.39
2022-10-04T10:29:28.293Z,84.26
2022-10-04T10:32:27.142Z,86.42
2022-10-04T10:35:27.502Z,82.04
2022-10-04T10:38:08.723Z,82.26
2022-10-04T10:40:59.890Z,84.64
2022-10-04T10:43:46.426Z,81.39
2022-10-04T10:46:43.645Z,81.72
2022-10-04T10:49:27.263Z,79.18
2022-10-04T10:52:17.801Z,78.26
2022-10-04T10:54:59.870Z,80.22
2022-10-04T10:57:54.061Z,78.16
2022-10-04T11:00:23.355Z,75.10
2022-10-04T11:03:13.136Z,76.12
2022-10-04T11:06:14.529Z,74.12
2022-10-04T11:09:05.322Z,74.20
2022-10-04T11:11:56.255Z,74.82
2022-10-04T11:14:51.793Z,76.83
2022-10-04T11:17:46.749Z,78.49
2022-10-04T11:20:25.107Z,77.27
2022-10-04T11:23:20.477Z,76.61
2022-10-04T11:25:55.505Z,72.09
2022-10-04T11:28:31.447Z,69.07
2022-10-04T11:31:01.485Z,67.99
2022-10-04T11:33:55.823Z,68.40
2022-10-04T11:36:39.080Z,66.43
2022-10-04T11:39:21.685Z,67.00
2022-10-04T11:42:07.641Z,68.67
2022-10-04T11:45:05.383Z,66.24
2022-10-04T11:47:40.608Z,69.13
2022-10-04T11:50:25.016Z,72.86
2022-10-04T11:53:06.671Z,74.85
2022-10-04T11:56:03.960Z,76.67
2022-10-04T11:58:39.762Z,77.07
2022-10-04T12:01:42.313Z,77.25
2022-10-04T12:04:23.252Z,76.00
2022-10-04T12:07:22.576Z,73.28
2022-10-04T12:10:19.691Z,70.49
2022-10-04T12:13:05.365Z,68.34
2022-10-04T12:16:12.777Z,65.28
2022-10-04T12:18:57.721Z,65.45
2022-10-04T12:21:50.337Z,64.04
2022-10-04T12:24:28.604Z,66.11
2022-10-04T12:27:12.173Z,60.84
2022-10-04T12:30:14.158Z,60.13
2022-10-04T12:33:03.352Z,61.12
2022-10-04T12:36:05.277Z,60.76
2022-10-04T12:38:54.621Z,56.81
2022-10-04T12:41:46.144Z,59.15
2022-10-04T12:44:29.790Z,61.30
2022-10-04T12:47:26.728Z,58.82
2022-10-04T12:50:28.616Z,55.18
2022-10-04T12:53:36.821Z,56.21
2022-10-04T12:56:22.076Z,59.07
2022-10-04T12:59:11.149Z,56.67
2022-10-04T13:01:49.926Z,56.43
2022-10-04T13:04:39.168Z,56.01
2022-10-04T13:07:30.392Z,54.37
2022-10-04T13:10:25.606Z,53.24
2022-10-04T13:12:55.043Z,50.63
2022-10-04T13:15:24.717Z,51.59
2022-10-04T13:17:53.833Z,54.43
2022-10-04T13:20:37.937Z,55.53
2022-10-04T13:23:21.072Z,56.02
2022-10-04T13:26:02.686Z,55.38
2022-10-04T13:29:07.389Z,54.03
2022-10-04T13:31:56.996Z,52.22
2022-10-04T13:34:34.305Z,52.19
2022-10-04T13:37:18.069Z,52.21
2022-10-04T13:40:05.630Z,49.93
2022-10-04T13:43:00.810Z,53.83
2022-10-04T13:45:43.991Z,57.80
2022-10-04T13:48:34.682Z,56.75
2022-10-04T13:51:16.385Z,59.16
2022-10-04T13:54:30.411Z,56.63
2022-10-04T13:57:18.752Z,59.18
2022-10-04T13:59:54.569Z,62.22
2022-10-04T14:02:51.973Z,64.07
2022-10-04T14:05:31.837Z,65.46
2022-10-04T14:08:30.726Z,66.75
2022-10-04T14:11:31.545Z,65.38
2022-10-04T14:14:17.336Z,64.82
2022-10-04T14:17:11.570Z,65.72
2022-10-04T14:20:00.930Z,67.48
2022-10-04T14:22:50.278Z,68.66
2022-10-04T14:25:39.394Z,69.86
2022-10-04T14:28:40.904Z,70.95
2022-10-04T14:31:36.989Z,71.72
2022-10-04T14:34:26.692Z,72.22
2022-10-04T14:37:08.266Z,73.33
2022-10-04T14:40:19.495Z,73.68
2022-10-04T14:43:08.982Z,73.01
2022-10-04T14:46:01.271Z,73.54
2022-10-04T14:48:51.211Z,73.86
2022-10-04T14:51:26.560Z,75.59
2022-10-04T14:54:28.880Z,76.28
2022-10-04T14:57:12.200Z,76.90
2022-10-04T15:00:09.901Z,78.50
2022-10-04T15:02:50.291Z,78.27
2022-10-04T15:05:30.949Z,79.43
2022-10-04T15:08:22.037Z,79.94
2022-10-04T15:10:52.644Z,80.95
2022-10-04T15:13:27.892Z,81.00
2022-10-04T15:16:11.430Z,82.10
2022-10-04T15:19:19.295Z,80.14
2022-10-04T15:22:21.282Z,81.80
2022-10-04T15:24:50.182Z,83.45
2022-10-04T15:27:34.352Z,84.63
2022-10-04T15:30:24.189Z,83.58
2022-10-04T15:33:24.841Z,84.09
2022-10-04T15:35:57.498Z,85.00
2022-10-04T15:38:34.419Z,85.09
2022-10-04T15:41:31.954Z,84.43
2022-10-04T15:44:07.654Z,84.71
2022-10-04T15:46:44.389Z,84.42
2022-10-04T15:49:25.602Z,83.47
2022-10-04T15:52:04.227Z,84.57
2022-10-04T15:55:01.920Z,85.11
2022-10-04T15:57:52.771Z,85.83
2022-10-04T16:00:26.452Z,85.90
2022-10-04T16:03:07.466Z,86.63
2022-10-04T16:05:42.324Z,86.96
2022-10-04T16:08:32.018Z,87.70
2022-10-04T16:11:29.831Z,87.77
2022-10-04T16:14:24.347Z,87.93
2022-10-04T16:17:13.109Z,89.01
2022-10-04T16:19:47.974Z,88.90
2022-10-04T16:22:18.990Z,90.03
2022-10-04T16:24:58.500Z,90.10
2022-10-04T16:27:44.368Z,89.48
2022-10-04T16:30:27.863Z,91.13
2022-10-04T16:33:13.678Z,91.60
2022-10-04T16:36:00.593Z,91.30
2022-10-04T16:38:32.642Z,91.06
2022-10-04T16:41:13.743Z,91.91
2022-10-04T16:43:53.745Z,92.67
2022-10-04T16:46:37.616Z,92.29
2022-10-04T16:49:24.670Z,94.23
2022-10-04T16:52:12.934Z,92.96
2022-10-04T16:55:20.059Z,94.03
2022-10-04T16:58:24.846Z,94.20
2022-10-04T17:01:24.381Z,95.60
2022-10-04T17:04:04.410Z,95.23
2022-10-04T17:06:57.377Z,95.79
2022-10-04T17:09:35.816Z,95.56
2022-10-04T17:12:21.746Z,96.37
2022-10-04T17:15:36.573Z,96.71
2022-10-04T17:18:08.562Z,96.72
2022-10-04T17:20:40.761Z,96.52
2022-10-04T17:23:19.136Z,97.24
2022-10-04T17:26:17.404Z,95.76
2022-10-04T17:28:52.376Z,96.52
2022-10-04T17:31:27.353Z,96.15
2022-10-04T17:34:16.095Z,96.64
2022-10-04T17:36:51.050Z,97.15
2022-10-04T17:39:24.092Z,98.09
2022-10-04T17:42:14.093Z,98.89
2022-10-04T17:44:59.790Z,99.09
2022-10-04T17:47:57.332Z,100.00
2022-10-04T17:51:04.471Z,100.00
2022-10-04T17:53:54.749Z,100.00
2022-10-04T17:57:03.039Z,100.00
2022-10-04T17:59:38.369Z,100.00
2022-10-04T18:02:33.736Z,100.00
2022-10-04T18:05:08.367Z,100.00
2022-10-04T18:07:54.989Z,100.00
2022-10-04T18:10:39.121Z,100.00
2022-10-04T18:13:11.226Z,100.00
2022-10-04T18:15:57.546Z,100.00
2022-10-04T18:18:29.872Z,100.00
2022-10-04T18:20:56.178Z,100.00
2022-10-04T18:23:28.227Z,100.00
2022-10-04T18:25:59.356Z,100.00
2022-10-04T18:28:26.005Z,100.00
2022-10-04T18:30:52.433Z,100.00
2022-10-04T18:33:26.379Z,100.00
2022-10-04T18:36:05.195Z,100.00
2022-10-04T18:38:34.554Z,100.00
2022-10-04T18:41:23.228Z,100.00
2022-10-04T18:43:52.361Z,100.00
2022-10-04T18:46:22.787Z,100.00
2022-10-04T18:49:15.304Z,100.00
2022-10-04T18:51:59.530Z,100.00
2022-10-04T18:54:41.682Z,100.00
2022-10-04T18:57:10.697Z,100.00
2022-10-04T19:00:05.229Z,100.00
2022-10-04T19:02:43.656Z,100.00
2022-10-04T19:05:37.191Z,100.00
2022-10-04T19:08:20.022Z,100.00
2022-10-04T19:10:51.368Z,100.00
2022-10-04T19:13:43.373Z,100.00
2022-10-04T19:16:16.513Z,100.00
2022-10-04T19:18:52.629Z,100.00
2022-10-04T19:21:46.500Z,100.00
2022-10-04T19:24:40.959Z,100.00
2022-10-04T19:27:26.843Z,100.00
2022-10-04T19:30:04.662Z,100.00
2022-10-04T19:33:17.304Z,100.00
2022-10-04T19:35:54.987Z,100.00
2022-10-04T19:38:37.047Z,100.00
2022-10-04T19:41:13.278Z,100.00
2022-10-04T19:43:59.161Z,100.00
2022-10-04T19:46:36.185Z,100.00
2022-10-04T19:49:12.098Z,100.00
2022-10-04T19:51:46.168Z,100.00
2022-10-04T19:54:16.100Z,100.00
2022-10-04T19:56:47.283Z,100.00
2022-10-04T19:59:31.096Z,100.00
2022-10-04T20:01:57.692Z,100.00
2022-10-04T20:04:36.186Z,100.00
2022-10-04T20:07:24.895Z,100.00
2022-10-04T20:10:15.365Z,100.00
2022-10-04T20:12:44.969Z,100.00
2022-10-04T20:15:17.221Z,100.00
2022-10-04T20:17:45.329Z,100.00
2022-10-04T20:20:42.761Z,100.00
2022-10-04T20:23:11.841Z,100.00
2022-10-04T20:25:44.353Z,100.00
2022-10-04T20:28:32.205Z,100.00
2022-10-04T20:31:03.473Z,100.00
2022-10-04T20:33:32.949Z,100.00
2022-10-04T20:36:02.164Z,100.00
2022-10-04T20:38:47.982Z,100.00
2022-10-04T20:41:53.136Z,100.00
2022-10-04T20:44:43.017Z,100.00
2022-10-04T20:47:21.657Z,100.00
2022-10-04T20:49:49.402Z,100.00
2022-10-04T20:52:16.334Z,100.00
2022-10-04T20:54:53.397Z,100.00
2022-10-04T20:57:23.947Z,100.00
2022-10-04T20:59:55.401Z,100.00
2022-10-04T21:02:25.123Z,100.00
2022-10-04T21:04:54.269Z,100.00
2022-10-04T21:07:25.762Z,100.00
2022-10-04T21:09:53.261Z,100.00
2022-10-04T21:12:37.858Z,100.00
2022-10-04T21:15:17.522Z,100.00
2022-10-04T21:18:00.208Z,100.00
2022-10-04T21:20:46.109Z,100.00
2022-10-04T21:23:23.348Z,100.00
2022-10-04T21:25:50.316Z,100.00
2022-10-04T21:28:53.112Z,100.00
2022-10-04T21:31:19.547Z,100.00
2022-10-04T21:33:45.980Z,100.00
2022-10-04T21:36:12.362Z,100.00
2022-10-04T21:38:38.743Z,100.00
2022-10-04T21:41:05.414Z,100.00
2022-10-04T21:43:31.930Z,100.00
2022-10-04T21:45:58.425Z,100.00
2022-10-04T21:48:25.276Z,100.00
2022-10-04T21:50:53.048Z,100.00
2022-10-04T21:53:20.247Z,100.00
2022-10-04T21:55:47.229Z,100.00
2022-10-04T21:58:13.653Z,100.00
2022-10-04T22:00:40.074Z,100.00
2022-10-04T22:03:06.529Z,100.00
2022-10-04T22:05:32.977Z,100.00
2022-10-04T22:07:59.660Z,100.00
2022-10-04T22:10:26.265Z,100.00
2022-10-04T22:12:56.694Z,100.00
2022-10-04T22:15:24.971Z,100.00
2022-10-04T22:17:51.544Z,100.00
2022-10-04T22:20:18.176Z,100.00
2022-10-04T22:22:44.687Z,100.00
2022-10-04T22:25:19.406Z,100.00
2022-10-04T22:27:46.811Z,100.00
2022-10-04T22:30:25.576Z,100.00
2022-10-04T22:33:00.829Z,100.00
2022-10-04T22:35:30.987Z,100.00
2022-10-04T22:37:57.369Z,100.00
2022-10-04T22:40:25.665Z,100.00
2022-10-04T22:42:54.041Z,100.00
2022-10-04T22:45:26.317Z,100.00
2022-10-04T22:47:55.864Z,100.00
2022-10-04T22:50:35.004Z,100.00
2022-10-04T22:53:23.960Z,100.00
2022-10-04T22:55:52.163Z,100.00
2022-10-04T22:58:20.926Z,100.00
2022-10-04T23:00:47.870Z,100.00
2022-10-04T23:03:31.194Z,100.00
2022-10-04T23:06:01.702Z,100.00
2022-10-04T23:08:28.957Z,100.00
2022-10-04T23:10:57.196Z,100.00
2022-10-04T23:13:25.223Z,100.00
2022-10-04T23:15:52.366Z,100.00
2022-10-04T23:18:19.137Z,100.00
2022-10-04T23:20:56.088Z,100.00
2022-10-04T23:23:22.444Z,100.00
2022-10-04T23:25:48.905Z,100.00
2022-10-04T23:28:17.430Z,100.00
2022-10-04T23:30:45.819Z,100.00
2022-10-04T23:33:17.684Z,100.00
2022-10-04T23:35:44.167Z,100.00
2022-10-04T23:38:15.658Z,100.00
2022-10-04T23:40:42.671Z,100.00
2022-10-04T23:43:15.479Z,100.00
2022-10-04T23:45:44.280Z,100.00
2022-10-04T23:48:17.839Z,100.00
2022-10-04T23:50:44.303Z,100.00
2022-10-04T23:53:19.302Z,100.00
2022-10-04T23:55:46.161Z,100.00
2022-10-04T23:58:15.198Z,100.00
